createdAt,value
2023-10-10T00:00:24.307Z,97371.77
2023-10-10T00:03:11.321Z,97373.65
2023-10-10T00:05:40.098Z,97374.13
2023-10-10T00:08:11.006Z,97370.47
2023-10-10T00:10:51.512Z,97376.11
2023-10-10T00:13:20.067Z,97373.58
2023-10-10T00:15:52.394Z,97374.37
2023-10-10T00:18:20.340Z,97376.70
2023-10-10T00:21:06.834Z,97378.31
2023-10-10T00:23:47.684Z,97382.34
2023-10-10T00:26:22.048Z,97381.66
2023-10-10T00:28:56.612Z,97379.47
2023-10-10T00:31:25.001Z,97383.20
2023-10-10T00:33:51.890Z,97382.77
2023-10-10T00:36:23.056Z,97388.11
2023-10-10T00:39:05.953Z,97387.67
2023-10-10T00:41:44.677Z,97390.13
2023-10-10T00:44:15.343Z,97384.19
2023-10-10T00:46:42.622Z,97384.80
2023-10-10T00:49:17.550Z,97384.89
2023-10-10T00:51:47.890Z,97385.85
2023-10-10T00:54:22.139Z,97383.83
2023-10-10T00:56:54.989Z,97384.05
2023-10-10T00:59:44.897Z,97388.28
2023-10-10T01:02:21.393Z,97388.36
2023-10-10T01:04:49.667Z,97390.83
2023-10-10T01:07:19.347Z,97388.98
2023-10-10T01:10:08.731Z,97391.61
2023-10-10T01:12:40.138Z,97388.73
2023-10-10T01:15:34.967Z,97388.23
2023-10-10T01:18:01.641Z,97386.08
2023-10-10T01:20:36.863Z,97385.56
2023-10-10T01:23:04.166Z,97384.00
2023-10-10T01:25:33.808Z,97382.61
2023-10-10T01:28:03.710Z,97379.34
2023-10-10T01:30:50.574Z,97381.96
2023-10-10T01:33:17.743Z,97382.15
2023-10-10T01:35:45.019Z,97380.64
2023-10-10T01:38:42.026Z,97377.21
2023-10-10T01:41:31.717Z,97378.47
2023-10-10T01:44:09.475Z,97377.13
2023-10-10T01:46:36.669Z,97373.35
2023-10-10T01:49:03.533Z,97370.75
2023-10-10T01:51:33.832Z,97371.86
2023-10-10T01:54:06.797Z,97368.41
2023-10-10T01:56:33.468Z,97370.67
2023-10-10T01:59:03.493Z,97368.39
2023-10-10T02:01:32.463Z,97366.85
2023-10-10T02:03:59.250Z,97373.58
2023-10-10T02:06:28.915Z,97380.38
2023-10-10T02:09:15.117Z,97381.97
2023-10-10T02:11:51.040Z,97379.75
2023-10-10T02:14:19.894Z,97383.59
2023-10-10T02:16:49.801Z,97380.67
2023-10-10T02:19:17.147Z,97384.88
2023-10-10T02:21:48.487Z,97387.52
2023-10-10T02:24:31.050Z,97390.46
2023-10-10T02:26:58.016Z,97391.20
2023-10-10T02:29:33.799Z,97391.40
2023-10-10T02:32:11.637Z,97400.95
2023-10-10T02:34:39.343Z,97401.19
2023-10-10T02:37:35.547Z,97404.80
2023-10-10T02:40:15.645Z,97406.77
2023-10-10T02:42:50.835Z,97405.23
2023-10-10T02:45:28.745Z,97408.02
2023-10-10T02:47:56.018Z,97411.34
2023-10-10T02:50:44.090Z,97412.90
2023-10-10T02:53:11.251Z,97415.02
2023-10-10T02:55:42.177Z,97414.02
2023-10-10T02:58:21.779Z,97415.37
2023-10-10T03:00:58.093Z,97416.90
2023-10-10T03:03:25.896Z,97417.27
2023-10-10T03:05:54.710Z,97419.42
2023-10-10T03:08:35.939Z,97418.81
2023-10-10T03:11:15.080Z,97412.23
2023-10-10T03:13:45.437Z,97404.59
2023-10-10T03:16:18.345Z,97399.23
2023-10-10T03:19:01.342Z,97396.32
2023-10-10T03:21:47.653Z,97397.40
2023-10-10T03:24:28.304Z,97396.70
2023-10-10T03:27:00.376Z,97399.35
2023-10-10T03:29:39.322Z,97402.09
2023-10-10T03:32:20.550Z,97405.50
2023-10-10T03:35:13.548Z,97404.26
2023-10-10T03:37:42.199Z,97406.71
2023-10-10T03:40:22.792Z,97404.22
2023-10-10T03:43:08.641Z,97399.59
2023-10-10T03:45:54.309Z,97407.27
2023-10-10T03:48:39.668Z,97407.50
2023-10-10T03:51:27.930Z,97407.46
2023-10-10T03:54:15.794Z,97412.48
2023-10-10T03:57:00.794Z,97409.39
2023-10-10T03:59:46.970Z,97404.77
2023-10-10T04:02:32.388Z,97407.64
2023-10-10T04:05:27.304Z,97417.40
2023-10-10T04:08:14.052Z,97426.10
2023-10-10T04:11:05.714Z,97433.95
2023-10-10T04:13:51.746Z,97439.41
2023-10-10T04:16:37.555Z,97447.98
2023-10-10T04:19:23.128Z,97442.92
2023-10-10T04:22:08.386Z,97444.73
2023-10-10T04:24:54.085Z,97446.72
2023-10-10T04:27:39.082Z,97445.26
2023-10-10T04:30:25.132Z,97444.45
2023-10-10T04:33:10.717Z,97449.84
2023-10-10T04:35:56.162Z,97452.98
2023-10-10T04:38:41.513Z,97450.61
2023-10-10T04:41:33.354Z,97456.14
2023-10-10T04:44:19.155Z,97458.45
2023-10-10T04:47:04.738Z,97461.20
2023-10-10T04:49:50.398Z,97462.19
2023-10-10T04:52:35.891Z,97463.03
2023-10-10T04:55:21.359Z,97463.91
2023-10-10T04:58:07.142Z,97467.91
2023-10-10T05:00:52.352Z,97469.98
2023-10-10T05:03:38.050Z,97476.02
2023-10-10T05:06:23.445Z,97479.12
2023-10-10T05:09:08.960Z,97480.73
2023-10-10T05:11:54.611Z,97483.86
2023-10-10T05:14:40.177Z,97481.62
2023-10-10T05:17:25.316Z,97482.67
2023-10-10T05:20:10.971Z,97491.83
2023-10-10T05:22:56.540Z,97492.48
2023-10-10T05:25:23.673Z,97491.59
2023-10-10T05:27:51.978Z,97489.16
2023-10-10T05:30:25.861Z,97492.26
2023-10-10T05:33:04.305Z,97499.34
2023-10-10T05:35:37.417Z,97503.08
2023-10-10T05:38:07.761Z,97510.61
2023-10-10T05:40:34.541Z,97514.88
2023-10-10T05:43:03.433Z,97513.14
2023-10-10T05:45:30.892Z,97518.48
2023-10-10T05:47:58.072Z,97521.08
2023-10-10T05:50:25.069Z,97527.05
2023-10-10T05:52:52.293Z,97528.42
2023-10-10T05:55:19.096Z,97530.48
2023-10-10T05:57:46.654Z,97536.98
2023-10-10T06:00:14.640Z,97540.56
2023-10-10T06:02:47.875Z,97542.28
2023-10-10T06:05:18.321Z,97543.81
2023-10-10T06:07:45.074Z,97546.85
2023-10-10T06:10:19.346Z,97550.61
2023-10-10T06:12:49.044Z,97545.45
2023-10-10T06:15:19.860Z,97551.11
2023-10-10T06:17:52.187Z,97549.98
2023-10-10T06:20:22.295Z,97550.95
2023-10-10T06:22:49.240Z,97554.73
2023-10-10T06:25:19.183Z,97558.93
2023-10-10T06:27:46.709Z,97561.77
2023-10-10T06:30:19.972Z,97562.87
2023-10-10T06:32:50.020Z,97563.59
2023-10-10T06:35:21.003Z,97561.81
2023-10-10T06:37:54.374Z,97562.77
2023-10-10T06:40:25.829Z,97564.02
2023-10-10T06:43:08.255Z,97564.17
2023-10-10T06:45:35.241Z,97567.41
2023-10-10T06:48:02.211Z,97568.66
2023-10-10T06:50:32.675Z,97569.87
2023-10-10T06:53:01.078Z,97569.70
2023-10-10T06:55:45.909Z,97574.88
2023-10-10T06:58:14.758Z,97572.09
2023-10-10T07:00:45.682Z,97572.02
2023-10-10T07:03:19.604Z,97576.41
2023-10-10T07:05:46.917Z,97575.84
2023-10-10T07:08:14.401Z,97577.36
2023-10-10T07:10:46.239Z,97581.30
2023-10-10T07:13:14.453Z,97583.27
2023-10-10T07:15:43.085Z,97578.88
2023-10-10T07:18:14.742Z,97581.73
2023-10-10T07:21:04.275Z,97582.67
2023-10-10T07:23:39.932Z,97585.95
2023-10-10T07:26:21.913Z,97592.02
2023-10-10T07:28:50.597Z,97592.53
2023-10-10T07:31:19.433Z,97595.00
2023-10-10T07:33:56.173Z,97593.19
2023-10-10T07:36:28.328Z,97596.54
2023-10-10T07:39:16.283Z,97594.86
2023-10-10T07:41:45.824Z,97595.17
2023-10-10T07:44:22.927Z,97592.98
2023-10-10T07:47:28.906Z,97591.11
2023-10-10T07:49:56.755Z,97594.89
2023-10-10T07:52:23.743Z,97596.66
2023-10-10T07:54:54.511Z,97596.23
2023-10-10T07:57:29.202Z,97595.27
2023-10-10T07:59:58.092Z,97595.36
2023-10-10T08:02:27.620Z,97594.20
2023-10-10T08:04:55.804Z,97595.83
2023-10-10T08:07:26.843Z,97590.58
2023-10-10T08:10:13.894Z,97594.42
2023-10-10T08:12:43.901Z,97594.46
2023-10-10T08:15:20.952Z,97596.32
2023-10-10T08:17:55.582Z,97599.21
2023-10-10T08:21:00.653Z,97598.32
2023-10-10T08:23:27.950Z,97604.15
2023-10-10T08:25:54.937Z,97602.76
2023-10-10T08:28:21.817Z,97605.34
2023-10-10T08:30:53.658Z,97605.36
2023-10-10T08:33:20.698Z,97605.99
2023-10-10T08:35:50.687Z,97603.30
2023-10-10T08:38:22.011Z,97602.14
2023-10-10T08:40:59.048Z,97602.88
2023-10-10T08:43:29.262Z,97605.11
2023-10-10T08:45:57.795Z,97605.49
2023-10-10T08:48:27.537Z,97604.33
2023-10-10T08:50:55.425Z,97604.58
2023-10-10T08:53:25.698Z,97605.01
2023-10-10T08:55:56.995Z,97604.58
2023-10-10T08:58:23.677Z,97603.45
2023-10-10T09:00:51.724Z,97603.45
2023-10-10T09:03:19.217Z,97604.75
2023-10-10T09:05:48.267Z,97606.42
2023-10-10T09:08:15.046Z,97604.23
2023-10-10T09:10:43.914Z,97607.70
2023-10-10T09:13:10.740Z,97610.00
2023-10-10T09:15:41.388Z,97608.67
2023-10-10T09:18:22.720Z,97610.15
2023-10-10T09:20:53.966Z,97609.19
2023-10-10T09:23:25.016Z,97610.48
2023-10-10T09:26:30.451Z,97615.97
2023-10-10T09:28:59.577Z,97619.89
2023-10-10T09:31:27.413Z,97617.58
2023-10-10T09:33:58.378Z,97617.98
2023-10-10T09:36:28.417Z,97619.88
2023-10-10T09:39:09.130Z,97617.93
2023-10-10T09:41:36.996Z,97614.30
2023-10-10T09:44:21.803Z,97611.01
2023-10-10T09:47:07.785Z,97608.39
2023-10-10T09:49:55.730Z,97605.12
2023-10-10T09:52:42.910Z,97603.09
2023-10-10T09:55:14.491Z,97604.36
2023-10-10T09:58:00.642Z,97601.65
2023-10-10T10:00:46.312Z,97603.77
2023-10-10T10:03:27.683Z,97602.73
2023-10-10T10:06:00.944Z,97597.02
2023-10-10T10:08:42.396Z,97602.92
2023-10-10T10:11:20.346Z,97606.19
2023-10-10T10:14:17.923Z,97605.02
2023-10-10T10:17:19.480Z,97597.19
2023-10-10T10:19:49.122Z,97597.48
2023-10-10T10:22:18.426Z,97596.07
2023-10-10T10:24:46.235Z,97595.81
2023-10-10T10:27:36.051Z,97591.83
2023-10-10T10:30:20.544Z,97588.02
2023-10-10T10:32:54.816Z,97587.10
2023-10-10T10:35:37.866Z,97582.87
2023-10-10T10:38:07.624Z,97583.20
2023-10-10T10:40:41.111Z,97577.25
2023-10-10T10:43:15.318Z,97571.33
2023-10-10T10:46:08.971Z,97572.61
2023-10-10T10:48:36.501Z,97568.50
2023-10-10T10:51:23.249Z,97563.76
2023-10-10T10:53:59.828Z,97562.58
2023-10-10T10:56:32.548Z,97565.48
2023-10-10T10:59:13.627Z,97561.78
2023-10-10T11:01:46.395Z,97564.40
2023-10-10T11:04:25.663Z,97559.58
2023-10-10T11:07:04.800Z,97561.14
2023-10-10T11:09:35.155Z,97565.21
2023-10-10T11:12:09.934Z,97564.56
2023-10-10T11:14:50.627Z,97565.67
2023-10-10T11:17:18.649Z,97564.21
2023-10-10T11:19:47.613Z,97562.67
2023-10-10T11:22:53.524Z,97570.31
2023-10-10T11:25:30.266Z,97574.95
2023-10-10T11:28:04.244Z,97580.96
2023-10-10T11:30:34.685Z,97580.92
2023-10-10T11:33:18.098Z,97579.27
2023-10-10T11:36:02.036Z,97581.16
2023-10-10T11:38:36.925Z,97579.36
2023-10-10T11:41:09.960Z,97581.91
2023-10-10T11:44:02.253Z,97585.17
2023-10-10T11:46:31.689Z,97587.38
2023-10-10T11:49:00.698Z,97587.35
2023-10-10T11:51:38.875Z,97589.04
2023-10-10T11:54:05.913Z,97589.44
2023-10-10T11:56:34.884Z,97591.45
2023-10-10T11:59:10.530Z,97591.58
2023-10-10T12:01:52.067Z,97595.88
2023-10-10T12:04:31.146Z,97596.73
2023-10-10T12:07:00.160Z,97591.63
2023-10-10T12:09:29.225Z,97591.84
2023-10-10T12:12:00.140Z,97594.79
2023-10-10T12:14:30.039Z,97595.17
2023-10-10T12:16:58.671Z,97595.63
2023-10-10T12:19:28.624Z,97589.67
2023-10-10T12:21:56.416Z,97588.95
2023-10-10T12:24:24.016Z,97586.65
2023-10-10T12:26:54.714Z,97588.50
2023-10-10T12:29:24.304Z,97586.00
2023-10-10T12:31:56.258Z,97588.42
2023-10-10T12:34:24.572Z,97585.05
2023-10-10T12:37:00.076Z,97584.59
2023-10-10T12:39:28.441Z,97582.00
2023-10-10T12:41:58.038Z,97574.27
2023-10-10T12:44:25.163Z,97578.25
2023-10-10T12:46:55.351Z,97575.88
2023-10-10T12:49:29.578Z,97578.10
2023-10-10T12:51:57.787Z,97574.23
2023-10-10T12:54:35.278Z,97571.20
2023-10-10T12:57:06.554Z,97569.00
2023-10-10T12:59:34.952Z,97564.28
2023-10-10T13:02:04.239Z,97558.09
2023-10-10T13:04:36.830Z,97554.05
2023-10-10T13:07:04.264Z,97560.19
2023-10-10T13:09:33.008Z,97559.73
2023-10-10T13:12:03.102Z,97558.98
2023-10-10T13:14:33.272Z,97556.84
2023-10-10T13:17:38.669Z,97554.21
2023-10-10T13:20:06.003Z,97559.32
2023-10-10T13:22:32.751Z,97559.45
2023-10-10T13:24:59.498Z,97557.24
2023-10-10T13:27:26.361Z,97556.52
2023-10-10T13:29:53.068Z,97555.31
2023-10-10T13:32:20.887Z,97556.15
2023-10-10T13:34:47.804Z,97558.75
2023-10-10T13:37:14.427Z,97554.66
2023-10-10T13:39:44.322Z,97554.60
2023-10-10T13:42:14.928Z,97551.23
2023-10-10T13:44:42.545Z,97549.05
2023-10-10T13:47:09.870Z,97552.46
2023-10-10T13:49:44.705Z,97552.56
2023-10-10T13:52:17.175Z,97552.88
2023-10-10T13:54:44.087Z,97550.42
2023-10-10T13:57:10.830Z,97551.41
2023-10-10T13:59:38.110Z,97550.25
2023-10-10T14:02:08.950Z,97548.59
2023-10-10T14:04:49.352Z,97549.88
2023-10-10T14:07:16.173Z,97553.37
2023-10-10T14:10:02.331Z,97550.65
2023-10-10T14:12:32.345Z,97550.65
2023-10-10T14:14:59.237Z,97554.20
2023-10-10T14:17:25.937Z,97554.64
2023-10-10T14:19:53.407Z,97557.94
2023-10-10T14:22:23.470Z,97557.45
2023-10-10T14:24:51.355Z,97559.13
2023-10-10T14:27:20.724Z,97554.81
2023-10-10T14:29:49.083Z,97558.35
2023-10-10T14:32:30.818Z,97559.27
2023-10-10T14:35:03.775Z,97558.33
2023-10-10T14:37:45.594Z,97562.70
2023-10-10T14:40:19.252Z,97559.11
2023-10-10T14:42:45.999Z,97561.83
2023-10-10T14:45:13.472Z,97566.46
2023-10-10T14:47:44.207Z,97568.15
2023-10-10T14:50:13.627Z,97568.42
2023-10-10T14:52:50.322Z,97571.19
2023-10-10T14:55:28.212Z,97572.00
2023-10-10T14:57:56.828Z,97571.40
2023-10-10T15:00:26.148Z,97576.41
2023-10-10T15:02:54.206Z,97577.30
2023-10-10T15:05:26.009Z,97578.20
2023-10-10T15:07:54.383Z,97582.92
2023-10-10T15:10:26.121Z,97583.92
2023-10-10T15:12:53.932Z,97587.35
2023-10-10T15:15:22.966Z,97591.30
2023-10-10T15:17:50.616Z,97593.47
2023-10-10T15:20:17.660Z,97597.29
2023-10-10T15:22:44.773Z,97601.73
2023-10-10T15:25:13.724Z,97605.33
2023-10-10T15:27:41.708Z,97608.36
2023-10-10T15:30:09.256Z,97612.20
2023-10-10T15:32:47.113Z,97619.05
2023-10-10T15:35:16.064Z,97621.84
2023-10-10T15:37:43.157Z,97624.41
2023-10-10T15:40:21.420Z,97631.00
2023-10-10T15:42:52.453Z,97633.92
2023-10-10T15:45:22.321Z,97636.80
2023-10-10T15:47:50.630Z,97638.14
2023-10-10T15:50:17.604Z,97641.23
2023-10-10T15:52:50.644Z,97647.59
2023-10-10T15:55:24.577Z,97650.77
2023-10-10T15:57:53.020Z,97656.78
2023-10-10T16:00:34.360Z,97657.86
2023-10-10T16:03:07.184Z,97662.52
2023-10-10T16:05:42.030Z,97667.23
2023-10-10T16:08:10.058Z,97679.11
2023-10-10T16:10:39.522Z,97677.29
2023-10-10T16:13:08.292Z,97675.62
2023-10-10T16:15:37.119Z,97681.06
2023-10-10T16:18:04.871Z,97684.99
2023-10-10T16:20:35.893Z,97694.36
2023-10-10T16:23:02.858Z,97694.84
2023-10-10T16:25:29.410Z,97703.30
2023-10-10T16:27:58.301Z,97707.19
2023-10-10T16:30:25.132Z,97712.82
2023-10-10T16:32:51.959Z,97716.55
2023-10-10T16:35:21.334Z,97718.77
2023-10-10T16:37:49.471Z,97724.72
2023-10-10T16:40:17.769Z,97727.67
2023-10-10T16:42:45.948Z,97732.20
2023-10-10T16:45:12.797Z,97736.36
2023-10-10T16:47:43.854Z,97735.41
2023-10-10T16:50:10.911Z,97738.88
2023-10-10T16:52:41.220Z,97744.02
2023-10-10T16:55:12.895Z,97740.80
2023-10-10T16:57:41.057Z,97743.40
2023-10-10T17:00:15.888Z,97744.16
2023-10-10T17:02:46.750Z,97746.10
2023-10-10T17:05:14.467Z,97751.83
2023-10-10T17:07:44.207Z,97754.19
2023-10-10T17:10:16.920Z,97756.58
2023-10-10T17:12:44.533Z,97758.08
2023-10-10T17:15:22.088Z,97763.18
2023-10-10T17:17:49.670Z,97763.45
2023-10-10T17:20:16.708Z,97761.85
2023-10-10T17:22:51.159Z,97764.54
2023-10-10T17:25:18.403Z,97771.13
2023-10-10T17:27:46.844Z,97770.10
2023-10-10T17:30:15.018Z,97774.58
2023-10-10T17:32:43.115Z,97773.27
2023-10-10T17:35:11.655Z,97776.02
2023-10-10T17:37:41.347Z,97776.77
2023-10-10T17:40:14.282Z,97779.63
2023-10-10T17:42:49.379Z,97782.55
2023-10-10T17:45:17.019Z,97783.93
2023-10-10T17:47:43.800Z,97782.58
2023-10-10T17:50:12.624Z,97780.44
2023-10-10T17:52:43.135Z,97781.79
2023-10-10T17:55:10.384Z,97784.98
2023-10-10T17:57:36.973Z,97783.36
2023-10-10T18:00:14.144Z,97781.83
2023-10-10T18:02:46.133Z,97783.02
2023-10-10T18:05:15.206Z,97785.02
2023-10-10T18:07:44.120Z,97791.84
2023-10-10T18:10:13.978Z,97794.04
2023-10-10T18:12:41.464Z,97793.10
2023-10-10T18:15:10.751Z,97799.55
2023-10-10T18:17:39.962Z,97801.14
2023-10-10T18:20:15.390Z,97803.77
2023-10-10T18:22:46.296Z,97803.38
2023-10-10T18:25:13.999Z,97803.94
2023-10-10T18:27:47.490Z,97799.52
2023-10-10T18:30:19.874Z,97801.68
2023-10-10T18:32:53.421Z,97802.52
2023-10-10T18:35:27.043Z,97805.30
2023-10-10T18:37:53.833Z,97809.58
2023-10-10T18:40:20.898Z,97811.77
2023-10-10T18:42:48.764Z,97810.74
2023-10-10T18:45:16.841Z,97811.96
2023-10-10T18:47:48.311Z,97811.84
2023-10-10T18:50:21.213Z,97816.04
2023-10-10T18:52:54.994Z,97818.63
2023-10-10T18:55:26.682Z,97819.54
2023-10-10T18:58:00.796Z,97823.00
2023-10-10T19:00:29.298Z,97826.91
2023-10-10T19:02:57.174Z,97833.70
2023-10-10T19:05:28.330Z,97835.08
2023-10-10T19:07:57.997Z,97839.89
2023-10-10T19:10:26.691Z,97842.74
2023-10-10T19:12:55.131Z,97849.33
2023-10-10T19:15:26.771Z,97851.98
2023-10-10T19:17:59.576Z,97849.50
2023-10-10T19:20:33.232Z,97847.41
2023-10-10T19:23:01.534Z,97845.59
2023-10-10T19:25:29.995Z,97844.80
2023-10-10T19:27:58.699Z,97847.64
2023-10-10T19:30:29.928Z,97846.69
2023-10-10T19:32:58.006Z,97847.84
2023-10-10T19:35:28.342Z,97848.94
2023-10-10T19:37:55.930Z,97847.93
2023-10-10T19:40:28.469Z,97850.65
2023-10-10T19:42:56.889Z,97852.08
2023-10-10T19:45:28.953Z,97846.70
2023-10-10T19:48:02.949Z,97849.75
2023-10-10T19:50:31.370Z,97850.63
2023-10-10T19:52:58.336Z,97850.59
2023-10-10T19:55:25.673Z,97848.36
2023-10-10T19:57:52.481Z,97851.58
2023-10-10T20:00:22.618Z,97854.52
2023-10-10T20:02:57.276Z,97859.34
2023-10-10T20:05:24.608Z,97858.51
2023-10-10T20:07:54.394Z,97858.99
2023-10-10T20:10:22.900Z,97857.92
2023-10-10T20:12:54.866Z,97856.14
2023-10-10T20:15:28.658Z,97856.49
2023-10-10T20:17:59.243Z,97855.21
2023-10-10T20:20:27.021Z,97854.19
2023-10-10T20:22:57.647Z,97862.21
2023-10-10T20:25:31.510Z,97862.93
2023-10-10T20:28:02.685Z,97866.46
2023-10-10T20:30:35.505Z,97866.33
2023-10-10T20:33:05.471Z,97866.64
2023-10-10T20:35:33.190Z,97861.23
2023-10-10T20:38:06.212Z,97858.80
2023-10-10T20:40:35.525Z,97858.76
2023-10-10T20:43:08.085Z,97850.22
2023-10-10T20:45:35.696Z,97850.10
2023-10-10T20:48:09.033Z,97854.61
2023-10-10T20:50:41.093Z,97857.79
2023-10-10T20:53:12.283Z,97853.89
2023-10-10T20:55:39.141Z,97855.24
2023-10-10T20:58:05.696Z,97859.57
2023-10-10T21:00:35.049Z,97859.28
2023-10-10T21:03:06.329Z,97864.72
2023-10-10T21:05:36.468Z,97863.89
2023-10-10T21:08:04.167Z,97863.08
2023-10-10T21:10:31.169Z,97859.66
2023-10-10T21:12:58.343Z,97852.88
2023-10-10T21:15:25.264Z,97853.05
2023-10-10T21:17:54.004Z,97856.80
2023-10-10T21:20:28.550Z,97860.17
2023-10-10T21:23:00.340Z,97865.95
2023-10-10T21:25:27.255Z,97868.95
2023-10-10T21:27:56.954Z,97873.75
2023-10-10T21:30:28.795Z,97874.89
2023-10-10T21:32:57.188Z,97869.08
2023-10-10T21:35:30.356Z,97866.35
2023-10-10T21:38:02.531Z,97871.95
2023-10-10T21:40:31.945Z,97878.21
2023-10-10T21:43:00.058Z,97881.17
2023-10-10T21:45:32.610Z,97874.11
2023-10-10T21:47:59.416Z,97881.22
2023-10-10T21:50:26.431Z,97889.60
2023-10-10T21:52:53.102Z,97894.64
2023-10-10T21:55:21.778Z,97896.83
2023-10-10T21:57:57.579Z,97901.77
2023-10-10T22:00:31.922Z,97903.49
2023-10-10T22:03:05.918Z,97907.73
2023-10-10T22:05:34.976Z,97911.74
2023-10-10T22:08:06.980Z,97905.95
2023-10-10T22:10:35.701Z,97906.96
2023-10-10T22:13:04.391Z,97913.65
2023-10-10T22:15:35.197Z,97911.43
2023-10-10T22:18:04.795Z,97912.17
2023-10-10T22:20:34.610Z,97911.17
2023-10-10T22:23:01.626Z,97913.50
2023-10-10T22:25:32.529Z,97915.15
2023-10-10T22:28:01.112Z,97908.74
2023-10-10T22:30:33.004Z,97903.71
2023-10-10T22:32:59.828Z,97907.27
2023-10-10T22:35:29.130Z,97914.65
2023-10-10T22:37:56.628Z,97913.00
2023-10-10T22:40:27.294Z,97914.92
2023-10-10T22:42:55.722Z,97916.20
2023-10-10T22:45:24.102Z,97920.35
2023-10-10T22:47:54.363Z,97920.70
2023-10-10T22:50:21.973Z,97915.55
2023-10-10T22:52:53.348Z,97915.77
2023-10-10T22:55:21.195Z,97911.36
2023-10-10T22:57:51.050Z,97908.36
2023-10-10T23:00:26.327Z,97905.16
2023-10-10T23:02:58.911Z,97903.92
2023-10-10T23:05:27.893Z,97902.43
2023-10-10T23:07:58.097Z,97893.16
2023-10-10T23:10:24.715Z,97902.11
2023-10-10T23:12:53.101Z,97916.83
2023-10-10T23:15:27.357Z,97925.91
2023-10-10T23:18:00.093Z,97916.79
2023-10-10T23:20:28.695Z,97912.98
2023-10-10T23:22:57.447Z,97915.36
2023-10-10T23:25:26.310Z,97920.05
2023-10-10T23:27:57.056Z,97913.38
2023-10-10T23:30:29.578Z,97908.31
2023-10-10T23:32:59.500Z,97905.79
2023-10-10T23:35:27.279Z,97905.02
2023-10-10T23:38:00.829Z,97902.38
2023-10-10T23:40:45.371Z,97891.19
2023-10-10T23:43:21.741Z,97888.75
2023-10-10T23:45:57.246Z,97894.27
2023-10-10T23:48:31.087Z,97893.69
2023-10-10T23:50:59.635Z,97888.64
2023-10-10T23:53:26.643Z,97892.48
2023-10-10T23:55:59.487Z,97900.30
2023-10-10T23:58:26.818Z,97902.23
